createdAt,value
2023-04-25T00:00:18.435Z,10.65
2023-04-25T00:02:45.404Z,11.23
2023-04-25T00:05:12.469Z,9.43
2023-04-25T00:07:39.349Z,9.15
2023-04-25T00:10:07.706Z,8.48
2023-04-25T00:12:34.429Z,10.05
2023-04-25T00:15:01.289Z,9.50
2023-04-25T00:17:29.526Z,6.35
2023-04-25T00:19:56.255Z,10.35
2023-04-25T00:22:23.056Z,11.48
2023-04-25T00:24:49.787Z,14.48
2023-04-25T00:27:16.786Z,17.15
2023-04-25T00:29:43.544Z,11.95
2023-04-25T00:32:10.292Z,10.15
2023-04-25T00:34:38.391Z,10.80
2023-04-25T00:37:05.201Z,12.53
2023-04-25T00:39:31.955Z,9.55
2023-04-25T00:41:59.332Z,8.48
2023-04-25T00:44:26.781Z,13.20
2023-04-25T00:46:54.666Z,12.63
2023-04-25T00:49:21.453Z,7.90
2023-04-25T00:51:49.637Z,12.00
2023-04-25T00:54:17.048Z,9.02
2023-04-25T00:56:44.621Z,12.23
2023-04-25T00:59:11.376Z,9.35
2023-04-25T01:01:39.542Z,6.28
2023-04-25T01:04:06.591Z,8.07
2023-04-25T01:06:33.377Z,7.65
2023-04-25T01:09:02.533Z,6.38
2023-04-25T01:11:29.361Z,8.77
2023-04-25T01:13:56.145Z,7.50
2023-04-25T01:16:23.433Z,7.50
2023-04-25T01:18:50.806Z,11.13
2023-04-25T01:21:19.264Z,10.27
2023-04-25T01:23:46.226Z,11.15
2023-04-25T01:26:13.515Z,9.70
2023-04-25T01:28:40.955Z,12.70
2023-04-25T01:31:07.830Z,8.45
2023-04-25T01:33:34.578Z,8.93
2023-04-25T01:36:01.389Z,13.57
2023-04-25T01:38:29.592Z,8.32
2023-04-25T01:40:57.816Z,13.75
2023-04-25T01:43:24.741Z,9.07
2023-04-25T01:45:52.368Z,11.23
2023-04-25T01:48:19.304Z,10.85
2023-04-25T01:50:46.494Z,12.73
2023-04-25T01:53:14.524Z,9.95
2023-04-25T01:55:42.791Z,11.88
2023-04-25T01:58:09.797Z,9.52
2023-04-25T02:00:36.828Z,11.65
2023-04-25T02:03:03.738Z,8.02
2023-04-25T02:05:35.345Z,10.57
2023-04-25T02:08:05.618Z,10.63
2023-04-25T02:10:32.614Z,11.35
2023-04-25T02:13:00.735Z,15.88
2023-04-25T02:15:27.612Z,14.03
2023-04-25T02:17:54.528Z,8.20
2023-04-25T02:20:22.941Z,9.93
2023-04-25T02:22:50.016Z,16.50
2023-04-25T02:25:16.861Z,14.02
2023-04-25T02:27:44.021Z,13.25
2023-04-25T02:30:12.874Z,12.40
2023-04-25T02:32:40.451Z,6.07
2023-04-25T02:35:08.149Z,9.32
2023-04-25T02:37:36.542Z,11.80
2023-04-25T02:40:04.335Z,15.30
2023-04-25T02:42:31.281Z,12.25
2023-04-25T02:44:58.058Z,14.68
2023-04-25T02:47:26.269Z,12.13
2023-04-25T02:49:53.171Z,14.88
2023-04-25T02:52:19.902Z,10.73
2023-04-25T02:54:46.648Z,12.40
2023-04-25T02:57:13.442Z,9.02
2023-04-25T02:59:40.219Z,12.82
2023-04-25T03:02:06.994Z,13.75
2023-04-25T03:04:35.094Z,15.32
2023-04-25T03:07:01.993Z,11.50
2023-04-25T03:09:28.772Z,7.20
2023-04-25T03:11:55.550Z,15.82
2023-04-25T03:14:22.315Z,17.50
2023-04-25T03:16:49.101Z,18.30
2023-04-25T03:19:15.839Z,15.38
2023-04-25T03:21:44.360Z,14.00
2023-04-25T03:24:11.308Z,13.95
2023-04-25T03:26:38.117Z,15.32
2023-04-25T03:29:04.954Z,15.73
2023-04-25T03:31:32.103Z,13.57
2023-04-25T03:33:59.034Z,15.32
2023-04-25T03:36:25.825Z,16.67
2023-04-25T03:38:53.962Z,12.95
2023-04-25T03:41:20.670Z,17.13
2023-04-25T03:43:47.486Z,12.32
2023-04-25T03:46:14.326Z,12.35
2023-04-25T03:48:42.255Z,15.90
2023-04-25T03:51:08.981Z,14.80
2023-04-25T03:53:35.760Z,13.60
2023-04-25T03:56:04.127Z,12.60
2023-04-25T03:58:30.831Z,15.23
2023-04-25T04:00:57.577Z,15.88
2023-04-25T04:03:24.889Z,14.55
2023-04-25T04:05:51.901Z,12.88
2023-04-25T04:08:18.714Z,13.32
2023-04-25T04:10:45.497Z,14.45
2023-04-25T04:13:13.598Z,12.27
2023-04-25T04:15:40.404Z,13.07
2023-04-25T04:18:07.449Z,9.63
2023-04-25T04:20:34.260Z,11.65
2023-04-25T04:23:01.071Z,13.93
2023-04-25T04:25:27.817Z,9.10
2023-04-25T04:27:54.592Z,13.57
2023-04-25T04:30:24.436Z,10.60
2023-04-25T04:32:51.391Z,16.92
2023-04-25T04:35:18.350Z,10.52
2023-04-25T04:37:45.071Z,13.38
2023-04-25T04:40:12.261Z,12.43
2023-04-25T04:42:39.039Z,10.45
2023-04-25T04:45:06.576Z,11.77
2023-04-25T04:49:41.156Z,11.25
2023-04-25T04:52:07.892Z,13.25
2023-04-25T04:54:34.663Z,11.98
2023-04-25T04:57:01.530Z,7.60
2023-04-25T04:59:29.495Z,12.38
2023-04-25T05:01:56.562Z,16.87
2023-04-25T05:04:25.717Z,7.97
2023-04-25T05:06:53.989Z,10.13
2023-04-25T05:09:20.777Z,10.70
2023-04-25T05:11:47.491Z,4.70
2023-04-25T05:14:14.226Z,9.63
2023-04-25T05:16:41.026Z,9.63
2023-04-25T05:19:07.801Z,8.55
2023-04-25T05:21:34.591Z,8.60
2023-04-25T05:24:02.787Z,11.38
2023-04-25T05:26:29.762Z,9.73
2023-04-25T05:28:57.808Z,6.72
2023-04-25T05:31:24.597Z,7.60
2023-04-25T05:33:51.732Z,9.07
2023-04-25T05:36:19.750Z,12.82
2023-04-25T05:38:46.799Z,7.38
2023-04-25T05:41:14.863Z,5.90
2023-04-25T05:43:41.674Z,7.33
2023-04-25T05:46:08.472Z,6.32
2023-04-25T05:48:35.284Z,7.95
2023-04-25T05:51:02.031Z,8.45
2023-04-25T05:53:28.761Z,7.97
2023-04-25T05:55:55.537Z,6.53
2023-04-25T05:58:23.712Z,6.35
2023-04-25T06:00:50.469Z,7.45
2023-04-25T06:03:20.423Z,12.63
2023-04-25T06:05:47.887Z,8.57
2023-04-25T06:08:15.752Z,7.55
2023-04-25T06:10:42.693Z,11.07
2023-04-25T06:13:09.420Z,5.93
2023-04-25T06:15:37.726Z,6.57
2023-04-25T06:18:04.600Z,6.15
2023-04-25T06:20:31.392Z,7.65
2023-04-25T06:22:58.113Z,5.88
2023-04-25T06:25:24.820Z,8.82
2023-04-25T06:27:51.562Z,6.15
2023-04-25T06:30:18.306Z,5.97
2023-04-25T06:32:49.420Z,8.52
2023-04-25T06:35:16.318Z,5.18
2023-04-25T06:37:43.033Z,7.03
2023-04-25T06:40:10.326Z,7.70
2023-04-25T06:42:37.149Z,5.85
2023-04-25T06:45:05.561Z,7.00
2023-04-25T06:47:32.339Z,6.07
2023-04-25T06:50:00.492Z,5.82
2023-04-25T06:52:27.246Z,8.60
2023-04-25T06:54:54.004Z,9.70
2023-04-25T06:57:20.750Z,7.72
2023-04-25T06:59:47.445Z,5.40
2023-04-25T07:02:14.328Z,12.77
2023-04-25T07:04:41.452Z,8.35
2023-04-25T07:07:09.652Z,6.82
2023-04-25T07:09:36.401Z,6.17
2023-04-25T07:12:03.576Z,10.20
2023-04-25T07:14:30.307Z,8.68
2023-04-25T07:16:57.225Z,7.88
2023-04-25T07:19:24.167Z,6.80
2023-04-25T07:21:52.999Z,7.40
2023-04-25T07:24:22.129Z,7.78
2023-04-25T07:26:48.938Z,8.50
2023-04-25T07:29:15.663Z,5.38
2023-04-25T07:31:42.415Z,7.47
2023-04-25T07:34:09.215Z,10.80
2023-04-25T07:36:35.971Z,6.93
2023-04-25T07:39:02.798Z,4.93
2023-04-25T07:41:30.923Z,4.45
2023-04-25T07:43:57.703Z,6.90
2023-04-25T07:46:24.622Z,5.22
2023-04-25T07:48:51.709Z,7.00
2023-04-25T07:51:18.593Z,8.57
2023-04-25T07:53:45.298Z,5.65
2023-04-25T07:56:12.148Z,9.27
2023-04-25T07:58:40.281Z,8.45
2023-04-25T08:01:07.092Z,8.25
2023-04-25T08:03:33.995Z,4.28
2023-04-25T08:06:01.761Z,8.13
2023-04-25T08:08:30.283Z,8.23
2023-04-25T08:10:57.033Z,4.63
2023-04-25T08:13:23.752Z,5.00
2023-04-25T08:15:51.861Z,6.60
2023-04-25T08:18:19.216Z,3.70
2023-04-25T08:20:46.071Z,6.65
2023-04-25T08:23:13.811Z,7.97
2023-04-25T08:25:40.562Z,5.30
2023-04-25T08:28:07.452Z,2.60
2023-04-25T08:30:34.269Z,4.05
2023-04-25T08:33:02.476Z,5.07
2023-04-25T08:35:29.286Z,2.78
2023-04-25T08:37:56.068Z,3.95
2023-04-25T08:40:23.962Z,6.63
2023-04-25T08:42:53.040Z,4.87
2023-04-25T08:47:48.662Z,4.03
2023-04-25T08:52:46.323Z,4.80
2023-04-25T08:55:14.228Z,6.40
2023-04-25T08:57:42.737Z,6.10
2023-04-25T09:00:11.350Z,3.65
2023-04-25T09:02:38.466Z,3.92
2023-04-25T09:05:06.488Z,5.13
2023-04-25T09:07:34.598Z,4.63
2023-04-25T09:10:01.527Z,3.30
2023-04-25T09:12:29.707Z,4.13
2023-04-25T09:15:07.725Z,4.15
2023-04-25T09:17:34.490Z,3.13
2023-04-25T09:20:09.459Z,5.70
2023-04-25T09:22:38.374Z,5.65
2023-04-25T09:25:09.688Z,5.15
2023-04-25T09:27:36.550Z,2.28
2023-04-25T09:30:06.552Z,5.10
2023-04-25T09:32:33.470Z,2.75
2023-04-25T09:35:00.708Z,4.65
2023-04-25T09:37:28.988Z,2.78
2023-04-25T09:39:58.551Z,4.75
2023-04-25T09:42:26.443Z,2.95
2023-04-25T09:44:54.464Z,4.50
2023-04-25T09:47:21.543Z,3.03
2023-04-25T09:49:48.525Z,8.93
2023-04-25T09:52:16.681Z,2.42
2023-04-25T09:54:43.447Z,4.85
2023-04-25T09:57:16.342Z,2.47
2023-04-25T09:59:47.625Z,3.83
2023-04-25T10:02:16.228Z,1.58
2023-04-25T10:04:45.455Z,4.55
2023-04-25T10:07:12.776Z,3.15
2023-04-25T10:09:40.724Z,3.85
2023-04-25T10:12:08.135Z,2.85
2023-04-25T10:14:36.652Z,4.35
2023-04-25T10:17:04.015Z,1.83
2023-04-25T10:19:34.407Z,3.28
2023-04-25T10:22:08.787Z,2.72
2023-04-25T10:24:36.479Z,2.95
2023-04-25T10:27:05.190Z,2.28
2023-04-25T10:29:32.108Z,5.97
2023-04-25T10:32:00.298Z,4.00
2023-04-25T10:34:39.747Z,2.45
2023-04-25T10:37:09.122Z,4.82
2023-04-25T10:39:35.956Z,4.35
2023-04-25T10:42:03.560Z,2.90
2023-04-25T10:44:31.230Z,3.58
2023-04-25T10:47:00.231Z,4.60
2023-04-25T10:49:32.090Z,2.97
2023-04-25T10:52:29.141Z,2.50
2023-04-25T10:54:57.246Z,2.53
2023-04-25T10:57:38.546Z,4.00
2023-04-25T11:00:11.294Z,4.57
2023-04-25T11:02:42.569Z,3.83
2023-04-25T11:05:09.984Z,5.85
2023-04-25T11:07:48.079Z,4.55
2023-04-25T11:10:19.943Z,3.75
2023-04-25T11:12:47.058Z,6.32
2023-04-25T11:15:14.660Z,5.82
2023-04-25T11:17:44.002Z,2.72
2023-04-25T11:20:11.352Z,4.10
2023-04-25T11:22:39.530Z,4.75
2023-04-25T11:25:07.516Z,3.92
2023-04-25T11:27:34.583Z,4.00
2023-04-25T11:30:11.130Z,4.85
2023-04-25T11:32:42.034Z,4.45
2023-04-25T11:35:10.404Z,2.58
2023-04-25T11:37:37.796Z,2.47
2023-04-25T11:40:05.803Z,7.47
2023-04-25T11:42:35.424Z,4.90
2023-04-25T11:45:02.277Z,5.18
2023-04-25T11:47:30.524Z,4.78
2023-04-25T11:49:59.114Z,2.55
2023-04-25T11:52:36.994Z,1.58
2023-04-25T11:55:06.015Z,2.30
2023-04-25T12:00:07.312Z,3.65
2023-04-25T12:02:36.137Z,4.55
2023-04-25T12:05:16.022Z,4.72
2023-04-25T12:07:50.239Z,4.20
2023-04-25T12:10:18.825Z,2.83
2023-04-25T12:12:47.249Z,5.65
2023-04-25T12:15:16.431Z,5.75
2023-04-25T12:17:45.636Z,2.80
2023-04-25T12:20:14.570Z,5.22
2023-04-25T12:25:10.355Z,3.58
2023-04-25T12:27:37.097Z,4.38
2023-04-25T12:30:06.318Z,3.85
2023-04-25T12:32:33.110Z,4.57
2023-04-25T12:34:59.997Z,4.38
2023-04-25T12:37:27.924Z,3.90
2023-04-25T12:39:57.393Z,3.63
2023-04-25T12:42:25.501Z,1.35
2023-04-25T12:44:52.232Z,3.47
2023-04-25T12:47:19.044Z,4.78
2023-04-25T12:49:45.916Z,3.05
2023-04-25T12:52:12.708Z,2.08
2023-04-25T12:54:39.477Z,1.65
2023-04-25T12:57:06.220Z,4.32
2023-04-25T12:59:34.315Z,4.03
2023-04-25T13:02:01.104Z,2.25
2023-04-25T13:04:27.988Z,4.47
2023-04-25T13:06:54.828Z,3.45
2023-04-25T13:09:21.787Z,4.57
2023-04-25T13:11:48.566Z,3.03
2023-04-25T13:14:15.323Z,3.85
2023-04-25T13:16:43.589Z,4.57
2023-04-25T13:19:10.479Z,4.38
2023-04-25T13:21:37.261Z,2.33
2023-04-25T13:24:04.585Z,2.55
2023-04-25T13:26:31.358Z,3.15
2023-04-25T13:28:58.092Z,2.80
2023-04-25T13:31:24.936Z,2.13
2023-04-25T13:33:53.357Z,7.30
2023-04-25T13:36:20.601Z,2.65
2023-04-25T13:38:47.915Z,3.05
2023-04-25T13:41:15.079Z,1.40
2023-04-25T13:43:42.316Z,2.72
2023-04-25T13:46:16.573Z,2.67
2023-04-25T13:48:59.756Z,4.13
2023-04-25T13:51:30.982Z,3.75
2023-04-25T13:53:59.297Z,3.30
2023-04-25T13:56:26.166Z,2.70
2023-04-25T13:58:52.894Z,2.22
2023-04-25T14:01:20.328Z,2.70
2023-04-25T14:03:47.102Z,2.78
2023-04-25T14:06:15.201Z,1.70
2023-04-25T14:08:41.944Z,1.87
2023-04-25T14:11:08.952Z,2.42
2023-04-25T14:13:35.722Z,2.90
2023-04-25T14:16:02.466Z,2.17
2023-04-25T14:18:30.315Z,3.83
2023-04-25T14:20:57.051Z,3.28
2023-04-25T14:23:25.212Z,5.13
2023-04-25T14:25:51.952Z,3.85
2023-04-25T14:28:18.675Z,3.80
2023-04-25T14:30:45.475Z,3.30
2023-04-25T14:33:12.363Z,1.73
2023-04-25T14:35:39.192Z,2.35
2023-04-25T14:38:06.281Z,3.72
2023-04-25T14:40:34.408Z,4.47
2023-04-25T14:43:01.178Z,4.87
2023-04-25T14:45:28.016Z,1.25
2023-04-25T14:47:54.966Z,3.03
2023-04-25T14:50:21.842Z,4.70
2023-04-25T14:52:48.647Z,4.50
2023-04-25T14:55:15.389Z,3.30
2023-04-25T14:57:45.546Z,4.38
2023-04-25T15:00:13.207Z,4.10
2023-04-25T15:02:40.156Z,3.78
2023-04-25T15:05:07.817Z,3.90
2023-04-25T15:07:34.765Z,5.72
2023-04-25T15:10:01.831Z,4.43
2023-04-25T15:12:28.745Z,15.75
2023-04-25T15:14:56.953Z,13.07
2023-04-25T15:17:23.719Z,9.25
2023-04-25T15:19:50.565Z,9.52
2023-04-25T15:22:17.518Z,12.90
2023-04-25T15:24:44.270Z,19.05
2023-04-25T15:27:11.015Z,12.88
2023-04-25T15:29:37.736Z,14.48
2023-04-25T15:32:05.973Z,5.70
2023-04-25T15:34:34.124Z,5.72
2023-04-25T15:37:02.095Z,3.75
2023-04-25T15:39:28.841Z,9.20
2023-04-25T15:41:55.615Z,5.35
2023-04-25T15:44:22.350Z,5.40
2023-04-25T15:46:49.079Z,4.13
2023-04-25T15:49:17.344Z,6.70
2023-04-25T15:51:45.130Z,9.23
2023-04-25T15:54:12.243Z,5.43
2023-04-25T15:56:38.975Z,4.65
2023-04-25T15:59:05.821Z,3.15
2023-04-25T16:01:33.034Z,4.72
2023-04-25T16:03:59.965Z,3.63
2023-04-25T16:06:28.279Z,4.90
2023-04-25T16:08:55.345Z,5.47
2023-04-25T16:11:22.150Z,5.10
2023-04-25T16:13:49.290Z,8.57
2023-04-25T16:16:16.374Z,5.47
2023-04-25T16:18:43.186Z,2.30
2023-04-25T16:21:10.105Z,3.33
2023-04-25T16:23:38.172Z,2.97
2023-04-25T16:26:04.935Z,4.33
2023-04-25T16:28:31.654Z,3.55
2023-04-25T16:30:58.468Z,5.57
2023-04-25T16:33:25.293Z,3.22
2023-04-25T16:35:52.084Z,4.45
2023-04-25T16:38:19.104Z,6.68
2023-04-25T16:40:47.339Z,6.45
2023-04-25T16:43:14.147Z,5.28
2023-04-25T16:45:40.913Z,8.57
2023-04-25T16:48:07.724Z,7.03
2023-04-25T16:50:34.525Z,6.05
2023-04-25T16:53:01.257Z,4.93
2023-04-25T16:55:27.967Z,4.32
2023-04-25T16:57:56.047Z,4.72
2023-04-25T17:00:22.912Z,2.30
2023-04-25T17:02:49.842Z,3.95
2023-04-25T17:05:17.083Z,3.42
2023-04-25T17:07:43.871Z,3.05
2023-04-25T17:10:11.050Z,5.45
2023-04-25T17:12:37.836Z,2.05
2023-04-25T17:15:07.363Z,3.20
2023-04-25T17:17:34.113Z,2.38
2023-04-25T17:20:00.897Z,2.70
2023-04-25T17:22:27.750Z,4.68
2023-04-25T17:24:54.536Z,3.95
2023-04-25T17:27:21.267Z,2.88
2023-04-25T17:29:48.048Z,5.60
2023-04-25T17:32:17.522Z,3.42
2023-04-25T17:34:44.371Z,5.03
2023-04-25T17:37:11.103Z,5.63
2023-04-25T17:39:38.038Z,8.18
2023-04-25T17:42:04.822Z,3.90
2023-04-25T17:44:31.566Z,3.47
2023-04-25T17:46:58.465Z,5.18
2023-04-25T17:49:26.563Z,7.05
2023-04-25T17:51:53.646Z,5.67
2023-04-25T17:54:20.640Z,8.02
2023-04-25T17:56:47.447Z,4.22
2023-04-25T17:59:14.338Z,6.05
2023-04-25T18:01:45.601Z,3.65
2023-04-25T18:04:14.432Z,3.30
2023-04-25T18:06:42.545Z,5.90
2023-04-25T18:09:09.343Z,4.93
2023-04-25T18:11:36.087Z,3.25
2023-04-25T18:14:02.823Z,5.55
2023-04-25T18:16:36.830Z,6.50
2023-04-25T18:19:03.673Z,6.80
2023-04-25T18:21:31.861Z,8.98
2023-04-25T18:23:59.947Z,8.05
2023-04-25T18:26:26.715Z,5.43
2023-04-25T18:28:53.733Z,4.07
2023-04-25T18:31:20.884Z,4.70
2023-04-25T18:33:49.185Z,7.85
2023-04-25T18:36:16.056Z,6.05
2023-04-25T18:38:42.860Z,5.53
2023-04-25T18:41:33.812Z,7.15
2023-04-25T18:43:58.565Z,10.05
2023-04-25T18:46:25.379Z,6.55
2023-04-25T18:48:52.934Z,9.90
2023-04-25T18:51:20.040Z,8.10
2023-04-25T18:53:46.810Z,4.50
2023-04-25T18:56:14.933Z,4.28
2023-04-25T18:58:42.066Z,6.57
2023-04-25T19:01:08.962Z,9.73
2023-04-25T19:03:35.886Z,10.07
2023-04-25T19:06:02.841Z,12.70
2023-04-25T19:08:29.592Z,16.73
2023-04-25T19:10:57.652Z,16.70
2023-04-25T19:15:53.469Z,7.50
2023-04-25T19:18:20.251Z,5.97
2023-04-25T19:20:47.009Z,9.50
2023-04-25T19:23:13.781Z,11.93
2023-04-25T19:25:40.575Z,9.57
2023-04-25T19:28:07.384Z,16.25
2023-04-25T19:30:35.539Z,18.70
2023-04-25T19:33:02.313Z,13.23
2023-04-25T19:35:29.147Z,11.20
2023-04-25T19:37:55.923Z,10.38
2023-04-25T19:40:22.778Z,5.10
2023-04-25T19:42:49.580Z,5.72
2023-04-25T19:45:16.345Z,5.45
2023-04-25T19:47:44.476Z,10.00
2023-04-25T19:50:11.750Z,5.10
2023-04-25T19:52:39.692Z,7.50
2023-04-25T19:55:07.721Z,6.88
2023-04-25T19:57:35.312Z,6.30
2023-04-25T20:00:04.350Z,8.85
2023-04-25T20:04:59.180Z,7.05
2023-04-25T20:07:25.986Z,5.88
2023-04-25T20:09:52.691Z,5.07
2023-04-25T20:12:19.452Z,7.85
2023-04-25T20:14:46.212Z,7.22
2023-04-25T20:17:12.955Z,6.10
2023-04-25T20:19:39.822Z,8.65
2023-04-25T20:22:07.919Z,6.63
2023-04-25T20:24:34.691Z,10.30
2023-04-25T20:27:01.510Z,16.35
2023-04-25T20:29:28.515Z,11.60
2023-04-25T20:31:55.448Z,7.88
2023-04-25T20:34:22.372Z,5.72
2023-04-25T20:36:49.104Z,7.45
2023-04-25T20:39:17.344Z,9.98
2023-04-25T20:41:44.108Z,10.70
2023-04-25T20:44:10.987Z,6.15
2023-04-25T20:46:37.979Z,8.38
2023-04-25T20:49:04.774Z,8.10
2023-04-25T20:51:32.830Z,6.82
2023-04-25T20:53:59.639Z,7.60
2023-04-25T20:56:27.734Z,5.32
2023-04-25T20:58:54.805Z,6.73
2023-04-25T21:01:21.706Z,5.78
2023-04-25T21:03:48.650Z,6.90
2023-04-25T21:06:15.797Z,9.27
2023-04-25T21:08:42.575Z,8.60
2023-04-25T21:11:09.368Z,11.88
2023-04-25T21:13:37.656Z,3.20
2023-04-25T21:16:05.129Z,7.60
2023-04-25T21:18:32.007Z,7.88
2023-04-25T21:20:58.940Z,8.20
2023-04-25T21:23:25.670Z,6.18
2023-04-25T21:25:52.449Z,7.03
2023-04-25T21:28:19.185Z,5.75
2023-04-25T21:30:47.548Z,6.25
2023-04-25T21:33:14.442Z,10.48
2023-04-25T21:35:41.219Z,8.38
2023-04-25T21:38:07.908Z,7.78
2023-04-25T21:40:34.766Z,10.10
2023-04-25T21:43:02.749Z,11.18
2023-04-25T21:45:29.535Z,8.38
2023-04-25T21:47:57.726Z,4.72
2023-04-25T21:50:24.720Z,7.47
2023-04-25T21:52:51.439Z,7.40
2023-04-25T21:55:18.192Z,8.55
2023-04-25T21:57:44.909Z,7.35
2023-04-25T22:00:12.498Z,8.50
2023-04-25T22:02:39.558Z,8.15
2023-04-25T22:05:10.520Z,8.07
2023-04-25T22:07:37.306Z,9.17
2023-04-25T22:10:04.500Z,7.80
2023-04-25T22:12:31.257Z,8.80
2023-04-25T22:14:58.027Z,6.60
2023-04-25T22:17:24.941Z,9.20
2023-04-25T22:19:51.900Z,6.28
2023-04-25T22:22:19.972Z,8.00
2023-04-25T22:24:46.707Z,7.23
2023-04-25T22:27:13.442Z,8.70
2023-04-25T22:29:40.188Z,8.57
2023-04-25T22:32:06.970Z,10.48
2023-04-25T22:34:33.745Z,7.03
2023-04-25T22:37:00.513Z,6.60
2023-04-25T22:39:28.690Z,8.75
2023-04-25T22:41:55.563Z,6.15
2023-04-25T22:44:22.315Z,10.02
2023-04-25T22:46:49.267Z,10.20
2023-04-25T22:49:16.039Z,11.98
2023-04-25T22:51:42.759Z,6.85
2023-04-25T22:54:09.552Z,9.70
2023-04-25T22:56:37.640Z,9.63
2023-04-25T22:59:04.400Z,8.10
2023-04-25T23:01:31.174Z,7.88
2023-04-25T23:03:58.274Z,7.32
2023-04-25T23:06:25.339Z,8.68
2023-04-25T23:08:52.355Z,11.02
2023-04-25T23:11:19.528Z,9.63
2023-04-25T23:13:50.354Z,7.93
2023-04-25T23:16:17.145Z,9.77
2023-04-25T23:18:43.876Z,9.73
2023-04-25T23:21:10.635Z,6.65
2023-04-25T23:23:37.665Z,11.63
2023-04-25T23:26:07.272Z,6.28
2023-04-25T23:28:34.175Z,9.68
2023-04-25T23:31:05.863Z,7.72
2023-04-25T23:33:32.714Z,8.90
2023-04-25T23:36:00.003Z,9.02
2023-04-25T23:38:27.371Z,9.95
2023-04-25T23:40:54.314Z,12.55
2023-04-25T23:43:21.154Z,10.02
2023-04-25T23:45:47.903Z,9.73
2023-04-25T23:48:16.040Z,9.95
2023-04-25T23:50:42.771Z,11.00
2023-04-25T23:53:09.567Z,10.82
2023-04-25T23:55:36.295Z,9.80
2023-04-25T23:58:03.165Z,10.13
